sensor_id;sensor_type;location;lat;lon;timestamp;P1;durP1;ratioP1;P2;durP2;ratioP2
5730;SDS011;2890;51.950;7.668;2023-02-28T00:01:19;6.53;;;5.03;;
5730;SDS011;2890;51.950;7.668;2023-02-28T00:03:46;8.57;;;5.80;;
5730;SDS011;2890;51.950;7.668;2023-02-28T00:06:14;9.87;;;5.90;;
5730;SDS011;2890;51.950;7.668;2023-02-28T00:08:41;8.63;;;5.40;;
5730;SDS011;2890;51.950;7.668;2023-02-28T00:11:14;8.33;;;5.80;;
5730;SDS011;2890;51.950;7.668;2023-02-28T00:13:46;7.53;;;5.17;;
5730;SDS011;2890;51.950;7.668;2023-02-28T00:16:19;8.30;;;5.73;;
5730;SDS011;2890;51.950;7.668;2023-02-28T00:18:50;9.00;;;5.30;;
5730;SDS011;2890;51.950;7.668;2023-02-28T00:21:22;11.10;;;5.73;;
5730;SDS011;2890;51.950;7.668;2023-02-28T00:23:50;8.83;;;5.93;;
5730;SDS011;2890;51.950;7.668;2023-02-28T00:26:19;6.80;;;4.97;;
5730;SDS011;2890;51.950;7.668;2023-02-28T00:28:48;9.30;;;5.83;;
5730;SDS011;2890;51.950;7.668;2023-02-28T00:31:15;11.90;;;6.50;;
5730;SDS011;2890;51.950;7.668;2023-02-28T00:33:41;11.13;;;5.83;;
5730;SDS011;2890;51.950;7.668;2023-02-28T00:36:09;10.03;;;5.80;;
5730;SDS011;2890;51.950;7.668;2023-02-28T00:38:37;9.93;;;5.93;;
5730;SDS011;2890;51.950;7.668;2023-02-28T00:41:04;8.13;;;5.33;;
5730;SDS011;2890;51.950;7.668;2023-02-28T00:43:34;9.03;;;6.20;;
5730;SDS011;2890;51.950;7.668;2023-02-28T00:46:03;7.63;;;5.60;;
5730;SDS011;2890;51.950;7.668;2023-02-28T00:48:30;9.93;;;5.97;;
5730;SDS011;2890;51.950;7.668;2023-02-28T00:50:56;7.97;;;5.90;;
5730;SDS011;2890;51.950;7.668;2023-02-28T00:53:26;9.03;;;5.97;;
5730;SDS011;2890;51.950;7.668;2023-02-28T00:55:52;8.87;;;5.30;;
5730;SDS011;2890;51.950;7.668;2023-02-28T00:58:19;10.47;;;6.00;;
5730;SDS011;2890;51.950;7.668;2023-02-28T01:00:47;7.43;;;5.53;;
5730;SDS011;2890;51.950;7.668;2023-02-28T01:03:16;6.87;;;5.40;;
5730;SDS011;2890;51.950;7.668;2023-02-28T01:05:43;9.03;;;5.90;;
5730;SDS011;2890;51.950;7.668;2023-02-28T01:08:10;7.40;;;5.47;;
5730;SDS011;2890;51.950;7.668;2023-02-28T01:10:36;8.93;;;5.87;;
5730;SDS011;2890;51.950;7.668;2023-02-28T01:13:11;7.00;;;5.07;;
5730;SDS011;2890;51.950;7.668;2023-02-28T01:15:38;9.87;;;5.53;;
5730;SDS011;2890;51.950;7.668;2023-02-28T01:18:07;7.80;;;5.80;;
5730;SDS011;2890;51.950;7.668;2023-02-28T01:20:35;8.30;;;5.30;;
5730;SDS011;2890;51.950;7.668;2023-02-28T01:23:02;9.93;;;6.20;;
5730;SDS011;2890;51.950;7.668;2023-02-28T01:25:30;11.73;;;5.73;;
5730;SDS011;2890;51.950;7.668;2023-02-28T01:27:57;7.53;;;6.30;;
5730;SDS011;2890;51.950;7.668;2023-02-28T01:30:23;10.90;;;7.50;;
5730;SDS011;2890;51.950;7.668;2023-02-28T01:32:50;12.67;;;8.53;;
5730;SDS011;2890;51.950;7.668;2023-02-28T01:35:21;11.87;;;7.00;;
5730;SDS011;2890;51.950;7.668;2023-02-28T01:37:49;10.77;;;6.27;;
5730;SDS011;2890;51.950;7.668;2023-02-28T01:40:15;9.27;;;6.50;;
5730;SDS011;2890;51.950;7.668;2023-02-28T01:42:42;9.40;;;6.17;;
5730;SDS011;2890;51.950;7.668;2023-02-28T01:45:16;8.37;;;6.00;;
5730;SDS011;2890;51.950;7.668;2023-02-28T01:47:50;11.30;;;6.40;;
5730;SDS011;2890;51.950;7.668;2023-02-28T01:50:18;7.67;;;6.57;;
5730;SDS011;2890;51.950;7.668;2023-02-28T01:52:46;11.43;;;7.17;;
5730;SDS011;2890;51.950;7.668;2023-02-28T01:55:14;10.27;;;7.20;;
5730;SDS011;2890;51.950;7.668;2023-02-28T01:57:46;9.10;;;6.83;;
5730;SDS011;2890;51.950;7.668;2023-02-28T02:00:18;11.60;;;7.73;;
5730;SDS011;2890;51.950;7.668;2023-02-28T02:02:49;12.43;;;7.23;;
5730;SDS011;2890;51.950;7.668;2023-02-28T02:05:18;12.33;;;6.40;;
5730;SDS011;2890;51.950;7.668;2023-02-28T02:07:46;9.47;;;7.07;;
5730;SDS011;2890;51.950;7.668;2023-02-28T02:10:16;12.13;;;7.43;;
5730;SDS011;2890;51.950;7.668;2023-02-28T02:12:51;11.03;;;7.77;;
5730;SDS011;2890;51.950;7.668;2023-02-28T02:15:35;9.17;;;7.20;;
5730;SDS011;2890;51.950;7.668;2023-02-28T02:18:09;10.47;;;7.40;;
5730;SDS011;2890;51.950;7.668;2023-02-28T02:20:46;11.13;;;8.37;;
5730;SDS011;2890;51.950;7.668;2023-02-28T02:23:46;12.83;;;8.37;;
5730;SDS011;2890;51.950;7.668;2023-02-28T02:26:29;15.07;;;8.90;;
5730;SDS011;2890;51.950;7.668;2023-02-28T02:29:21;12.13;;;7.63;;
5730;SDS011;2890;51.950;7.668;2023-02-28T02:32:23;13.77;;;8.30;;
5730;SDS011;2890;51.950;7.668;2023-02-28T02:35:13;13.43;;;7.50;;
5730;SDS011;2890;51.950;7.668;2023-02-28T02:37:42;11.23;;;7.00;;
5730;SDS011;2890;51.950;7.668;2023-02-28T02:40:13;11.97;;;7.10;;
5730;SDS011;2890;51.950;7.668;2023-02-28T02:42:43;9.67;;;6.93;;
5730;SDS011;2890;51.950;7.668;2023-02-28T02:45:14;11.40;;;6.40;;
5730;SDS011;2890;51.950;7.668;2023-02-28T02:47:43;9.60;;;6.10;;
5730;SDS011;2890;51.950;7.668;2023-02-28T02:50:13;11.73;;;6.40;;
5730;SDS011;2890;51.950;7.668;2023-02-28T02:52:44;11.30;;;7.00;;
5730;SDS011;2890;51.950;7.668;2023-02-28T02:55:15;10.40;;;6.63;;
5730;SDS011;2890;51.950;7.668;2023-02-28T02:57:45;9.57;;;6.20;;
5730;SDS011;2890;51.950;7.668;2023-02-28T03:00:14;7.10;;;5.90;;
5730;SDS011;2890;51.950;7.668;2023-02-28T03:02:42;12.90;;;6.13;;
5730;SDS011;2890;51.950;7.668;2023-02-28T03:05:14;7.97;;;5.87;;
5730;SDS011;2890;51.950;7.668;2023-02-28T03:07:44;11.00;;;6.23;;
5730;SDS011;2890;51.950;7.668;2023-02-28T03:10:30;9.63;;;6.73;;
5730;SDS011;2890;51.950;7.668;2023-02-28T03:13:01;7.70;;;6.00;;
5730;SDS011;2890;51.950;7.668;2023-02-28T03:15:48;11.10;;;6.30;;
5730;SDS011;2890;51.950;7.668;2023-02-28T03:18:21;9.90;;;6.07;;
5730;SDS011;2890;51.950;7.668;2023-02-28T03:20:54;7.13;;;5.83;;
5730;SDS011;2890;51.950;7.668;2023-02-28T03:23:27;7.17;;;5.67;;
5730;SDS011;2890;51.950;7.668;2023-02-28T03:25:59;8.97;;;6.17;;
5730;SDS011;2890;51.950;7.668;2023-02-28T03:28:31;11.93;;;6.27;;
5730;SDS011;2890;51.950;7.668;2023-02-28T03:31:00;7.00;;;5.67;;
5730;SDS011;2890;51.950;7.668;2023-02-28T03:33:30;8.53;;;5.53;;
5730;SDS011;2890;51.950;7.668;2023-02-28T03:36:01;8.73;;;5.50;;
5730;SDS011;2890;51.950;7.668;2023-02-28T03:38:31;7.47;;;6.03;;
5730;SDS011;2890;51.950;7.668;2023-02-28T03:41:04;8.30;;;5.87;;
5730;SDS011;2890;51.950;7.668;2023-02-28T03:43:34;10.40;;;6.13;;
5730;SDS011;2890;51.950;7.668;2023-02-28T03:46:03;9.17;;;5.03;;
5730;SDS011;2890;51.950;7.668;2023-02-28T03:48:35;9.23;;;5.67;;
5730;SDS011;2890;51.950;7.668;2023-02-28T03:51:06;11.13;;;5.67;;
5730;SDS011;2890;51.950;7.668;2023-02-28T03:53:36;10.63;;;5.33;;
5730;SDS011;2890;51.950;7.668;2023-02-28T03:56:05;7.50;;;5.00;;
5730;SDS011;2890;51.950;7.668;2023-02-28T03:58:36;7.97;;;5.60;;
5730;SDS011;2890;51.950;7.668;2023-02-28T04:01:05;7.33;;;4.80;;
5730;SDS011;2890;51.950;7.668;2023-02-28T04:03:35;6.70;;;5.27;;
5730;SDS011;2890;51.950;7.668;2023-02-28T04:06:01;7.53;;;5.70;;
5730;SDS011;2890;51.950;7.668;2023-02-28T04:08:30;6.60;;;4.80;;
5730;SDS011;2890;51.950;7.668;2023-02-28T04:11:04;8.03;;;5.40;;
5730;SDS011;2890;51.950;7.668;2023-02-28T04:13:34;6.10;;;5.13;;
5730;SDS011;2890;51.950;7.668;2023-02-28T04:16:01;7.80;;;4.70;;
5730;SDS011;2890;51.950;7.668;2023-02-28T04:18:36;5.37;;;4.20;;
5730;SDS011;2890;51.950;7.668;2023-02-28T04:21:03;9.53;;;4.70;;
5730;SDS011;2890;51.950;7.668;2023-02-28T04:23:31;8.57;;;5.47;;
5730;SDS011;2890;51.950;7.668;2023-02-28T04:25:58;7.47;;;5.10;;
5730;SDS011;2890;51.950;7.668;2023-02-28T04:28:25;7.73;;;4.97;;
5730;SDS011;2890;51.950;7.668;2023-02-28T04:30:54;8.27;;;5.37;;
5730;SDS011;2890;51.950;7.668;2023-02-28T04:33:21;9.03;;;6.10;;
5730;SDS011;2890;51.950;7.668;2023-02-28T04:35:47;6.37;;;4.53;;
5730;SDS011;2890;51.950;7.668;2023-02-28T04:38:14;8.70;;;5.03;;
5730;SDS011;2890;51.950;7.668;2023-02-28T04:40:42;9.57;;;5.10;;
5730;SDS011;2890;51.950;7.668;2023-02-28T04:43:08;8.13;;;4.77;;
5730;SDS011;2890;51.950;7.668;2023-02-28T04:45:35;7.53;;;4.90;;
5730;SDS011;2890;51.950;7.668;2023-02-28T04:48:01;9.10;;;5.30;;
5730;SDS011;2890;51.950;7.668;2023-02-28T04:50:28;7.07;;;4.73;;
5730;SDS011;2890;51.950;7.668;2023-02-28T04:52:54;9.17;;;4.87;;
5730;SDS011;2890;51.950;7.668;2023-02-28T04:55:20;9.63;;;4.87;;
5730;SDS011;2890;51.950;7.668;2023-02-28T04:57:48;5.77;;;4.60;;
5730;SDS011;2890;51.950;7.668;2023-02-28T05:00:15;5.50;;;4.27;;
5730;SDS011;2890;51.950;7.668;2023-02-28T05:02:42;7.33;;;4.37;;
5730;SDS011;2890;51.950;7.668;2023-02-28T05:05:08;7.57;;;4.80;;
5730;SDS011;2890;51.950;7.668;2023-02-28T05:07:35;8.30;;;5.20;;
5730;SDS011;2890;51.950;7.668;2023-02-28T05:10:01;10.37;;;4.80;;
5730;SDS011;2890;51.950;7.668;2023-02-28T05:12:28;8.30;;;4.90;;
5730;SDS011;2890;51.950;7.668;2023-02-28T05:14:56;7.07;;;4.67;;
5730;SDS011;2890;51.950;7.668;2023-02-28T05:17:22;6.97;;;5.00;;
5730;SDS011;2890;51.950;7.668;2023-02-28T05:19:49;6.03;;;4.30;;
5730;SDS011;2890;51.950;7.668;2023-02-28T05:22:15;8.83;;;4.23;;
5730;SDS011;2890;51.950;7.668;2023-02-28T05:24:42;7.20;;;4.73;;
5730;SDS011;2890;51.950;7.668;2023-02-28T05:27:08;5.33;;;4.37;;
5730;SDS011;2890;51.950;7.668;2023-02-28T05:29:35;8.67;;;4.13;;
5730;SDS011;2890;51.950;7.668;2023-02-28T05:32:08;7.00;;;4.80;;
5730;SDS011;2890;51.950;7.668;2023-02-28T05:34:35;9.67;;;4.67;;
5730;SDS011;2890;51.950;7.668;2023-02-28T05:37:02;7.23;;;4.67;;
5730;SDS011;2890;51.950;7.668;2023-02-28T05:39:29;7.97;;;4.30;;
5730;SDS011;2890;51.950;7.668;2023-02-28T05:41:55;9.87;;;4.20;;
5730;SDS011;2890;51.950;7.668;2023-02-28T05:44:22;6.37;;;4.20;;
5730;SDS011;2890;51.950;7.668;2023-02-28T05:46:48;7.63;;;4.13;;
5730;SDS011;2890;51.950;7.668;2023-02-28T05:49:16;7.87;;;5.10;;
5730;SDS011;2890;51.950;7.668;2023-02-28T05:51:42;6.97;;;4.60;;
5730;SDS011;2890;51.950;7.668;2023-02-28T05:54:09;9.20;;;4.97;;
5730;SDS011;2890;51.950;7.668;2023-02-28T05:56:35;5.97;;;3.90;;
5730;SDS011;2890;51.950;7.668;2023-02-28T05:59:04;8.17;;;4.97;;
5730;SDS011;2890;51.950;7.668;2023-02-28T06:01:31;7.97;;;4.60;;
5730;SDS011;2890;51.950;7.668;2023-02-28T06:03:59;6.57;;;4.33;;
5730;SDS011;2890;51.950;7.668;2023-02-28T06:06:27;7.83;;;4.77;;
5730;SDS011;2890;51.950;7.668;2023-02-28T06:08:55;7.93;;;5.20;;
5730;SDS011;2890;51.950;7.668;2023-02-28T06:11:22;9.83;;;4.63;;
5730;SDS011;2890;51.950;7.668;2023-02-28T06:13:52;7.77;;;4.10;;
5730;SDS011;2890;51.950;7.668;2023-02-28T06:16:19;7.77;;;4.77;;
5730;SDS011;2890;51.950;7.668;2023-02-28T06:18:46;9.67;;;4.90;;
5730;SDS011;2890;51.950;7.668;2023-02-28T06:21:12;10.33;;;4.17;;
5730;SDS011;2890;51.950;7.668;2023-02-28T06:23:40;7.87;;;5.33;;
5730;SDS011;2890;51.950;7.668;2023-02-28T06:26:07;10.63;;;6.20;;
5730;SDS011;2890;51.950;7.668;2023-02-28T06:28:33;10.27;;;4.50;;
5730;SDS011;2890;51.950;7.668;2023-02-28T06:31:04;7.23;;;5.10;;
5730;SDS011;2890;51.950;7.668;2023-02-28T06:33:32;5.87;;;4.30;;
5730;SDS011;2890;51.950;7.668;2023-02-28T06:35:59;9.00;;;5.27;;
5730;SDS011;2890;51.950;7.668;2023-02-28T06:38:26;9.10;;;4.83;;
5730;SDS011;2890;51.950;7.668;2023-02-28T06:40:54;6.87;;;4.87;;
5730;SDS011;2890;51.950;7.668;2023-02-28T06:43:21;8.07;;;4.63;;
5730;SDS011;2890;51.950;7.668;2023-02-28T06:45:47;6.83;;;4.83;;
5730;SDS011;2890;51.950;7.668;2023-02-28T06:48:14;6.93;;;4.93;;
5730;SDS011;2890;51.950;7.668;2023-02-28T06:50:41;8.17;;;5.17;;
5730;SDS011;2890;51.950;7.668;2023-02-28T06:53:07;7.23;;;5.00;;
5730;SDS011;2890;51.950;7.668;2023-02-28T06:55:33;9.13;;;4.90;;
5730;SDS011;2890;51.950;7.668;2023-02-28T06:58:01;7.93;;;4.87;;
5730;SDS011;2890;51.950;7.668;2023-02-28T07:00:28;7.53;;;4.20;;
5730;SDS011;2890;51.950;7.668;2023-02-28T07:02:55;6.20;;;4.60;;
5730;SDS011;2890;51.950;7.668;2023-02-28T07:05:21;7.80;;;4.27;;
5730;SDS011;2890;51.950;7.668;2023-02-28T07:07:48;7.87;;;4.80;;
5730;SDS011;2890;51.950;7.668;2023-02-28T07:10:14;6.77;;;4.60;;
5730;SDS011;2890;51.950;7.668;2023-02-28T07:12:42;9.90;;;4.20;;
5730;SDS011;2890;51.950;7.668;2023-02-28T07:15:10;7.80;;;4.63;;
5730;SDS011;2890;51.950;7.668;2023-02-28T07:17:37;7.13;;;4.27;;
5730;SDS011;2890;51.950;7.668;2023-02-28T07:20:04;6.10;;;4.47;;
5730;SDS011;2890;51.950;7.668;2023-02-28T07:22:31;9.07;;;4.43;;
5730;SDS011;2890;51.950;7.668;2023-02-28T07:25:00;10.57;;;4.80;;
5730;SDS011;2890;51.950;7.668;2023-02-28T07:27:27;7.27;;;4.70;;
5730;SDS011;2890;51.950;7.668;2023-02-28T07:29:54;7.70;;;4.57;;
5730;SDS011;2890;51.950;7.668;2023-02-28T07:32:22;8.10;;;4.67;;
5730;SDS011;2890;51.950;7.668;2023-02-28T07:34:49;8.97;;;4.83;;
5730;SDS011;2890;51.950;7.668;2023-02-28T07:37:15;8.87;;;5.10;;
5730;SDS011;2890;51.950;7.668;2023-02-28T07:39:43;9.80;;;5.40;;
5730;SDS011;2890;51.950;7.668;2023-02-28T07:42:09;6.23;;;4.80;;
5730;SDS011;2890;51.950;7.668;2023-02-28T07:44:37;7.33;;;5.17;;
5730;SDS011;2890;51.950;7.668;2023-02-28T07:47:05;6.27;;;4.97;;
5730;SDS011;2890;51.950;7.668;2023-02-28T07:49:34;8.43;;;6.00;;
5730;SDS011;2890;51.950;7.668;2023-02-28T07:52:02;10.30;;;6.73;;
5730;SDS011;2890;51.950;7.668;2023-02-28T07:54:29;10.37;;;7.30;;
5730;SDS011;2890;51.950;7.668;2023-02-28T07:56:56;9.80;;;6.53;;
5730;SDS011;2890;51.950;7.668;2023-02-28T07:59:23;7.83;;;6.17;;
5730;SDS011;2890;51.950;7.668;2023-02-28T08:01:49;9.40;;;5.57;;
5730;SDS011;2890;51.950;7.668;2023-02-28T08:04:16;7.00;;;5.50;;
5730;SDS011;2890;51.950;7.668;2023-02-28T08:06:44;8.70;;;5.30;;
5730;SDS011;2890;51.950;7.668;2023-02-28T08:09:11;6.78;;;4.97;;
5730;SDS011;2890;51.950;7.668;2023-02-28T08:11:37;5.40;;;4.40;;
5730;SDS011;2890;51.950;7.668;2023-02-28T08:14:04;4.60;;;3.78;;
5730;SDS011;2890;51.950;7.668;2023-02-28T08:16:30;3.85;;;3.45;;
5730;SDS011;2890;51.950;7.668;2023-02-28T08:18:57;4.28;;;3.60;;
5730;SDS011;2890;51.950;7.668;2023-02-28T08:21:23;4.03;;;3.28;;
5730;SDS011;2890;51.950;7.668;2023-02-28T08:23:52;6.63;;;3.92;;
5730;SDS011;2890;51.950;7.668;2023-02-28T08:26:19;4.70;;;3.40;;
5730;SDS011;2890;51.950;7.668;2023-02-28T08:28:45;3.85;;;3.20;;
5730;SDS011;2890;51.950;7.668;2023-02-28T08:31:13;5.50;;;3.47;;
5730;SDS011;2890;51.950;7.668;2023-02-28T08:33:40;4.72;;;3.13;;
5730;SDS011;2890;51.950;7.668;2023-02-28T08:36:08;3.63;;;2.83;;
5730;SDS011;2890;51.950;7.668;2023-02-28T08:38:35;4.32;;;2.53;;
5730;SDS011;2890;51.950;7.668;2023-02-28T08:41:03;3.03;;;2.47;;
5730;SDS011;2890;51.950;7.668;2023-02-28T08:43:32;4.90;;;2.67;;
5730;SDS011;2890;51.950;7.668;2023-02-28T08:45:59;5.78;;;2.90;;
5730;SDS011;2890;51.950;7.668;2023-02-28T08:48:26;3.97;;;2.50;;
5730;SDS011;2890;51.950;7.668;2023-02-28T08:50:54;3.20;;;2.35;;
5730;SDS011;2890;51.950;7.668;2023-02-28T08:53:21;3.80;;;2.53;;
5730;SDS011;2890;51.950;7.668;2023-02-28T08:55:54;2.70;;;2.38;;
5730;SDS011;2890;51.950;7.668;2023-02-28T08:58:23;2.63;;;2.30;;
5730;SDS011;2890;51.950;7.668;2023-02-28T09:00:50;2.35;;;2.00;;
5730;SDS011;2890;51.950;7.668;2023-02-28T09:03:16;3.55;;;2.00;;
5730;SDS011;2890;51.950;7.668;2023-02-28T09:05:51;4.22;;;2.25;;
5730;SDS011;2890;51.950;7.668;2023-02-28T09:08:18;3.72;;;2.28;;
5730;SDS011;2890;51.950;7.668;2023-02-28T09:10:44;4.25;;;2.53;;
5730;SDS011;2890;51.950;7.668;2023-02-28T09:13:13;3.70;;;2.47;;
5730;SDS011;2890;51.950;7.668;2023-02-28T09:15:44;5.05;;;2.28;;
5730;SDS011;2890;51.950;7.668;2023-02-28T09:18:14;2.10;;;1.83;;
5730;SDS011;2890;51.950;7.668;2023-02-28T09:20:43;3.88;;;2.30;;
5730;SDS011;2890;51.950;7.668;2023-02-28T09:23:10;1.80;;;1.70;;
5730;SDS011;2890;51.950;7.668;2023-02-28T09:25:49;2.08;;;1.70;;
5730;SDS011;2890;51.950;7.668;2023-02-28T09:28:17;1.80;;;1.70;;
5730;SDS011;2890;51.950;7.668;2023-02-28T09:30:46;1.88;;;1.50;;
5730;SDS011;2890;51.950;7.668;2023-02-28T09:33:17;1.50;;;1.35;;
5730;SDS011;2890;51.950;7.668;2023-02-28T09:35:45;1.75;;;1.50;;
5730;SDS011;2890;51.950;7.668;2023-02-28T09:38:15;2.15;;;1.80;;
5730;SDS011;2890;51.950;7.668;2023-02-28T09:40:45;2.08;;;1.50;;
5730;SDS011;2890;51.950;7.668;2023-02-28T09:43:15;1.80;;;1.70;;
5730;SDS011;2890;51.950;7.668;2023-02-28T09:45:45;2.38;;;1.70;;
5730;SDS011;2890;51.950;7.668;2023-02-28T09:48:24;1.63;;;1.52;;
5730;SDS011;2890;51.950;7.668;2023-02-28T09:50:55;1.30;;;1.20;;
5730;SDS011;2890;51.950;7.668;2023-02-28T09:53:26;1.83;;;1.60;;
5730;SDS011;2890;51.950;7.668;2023-02-28T09:55:59;1.67;;;1.40;;
5730;SDS011;2890;51.950;7.668;2023-02-28T09:58:28;3.42;;;1.48;;
5730;SDS011;2890;51.950;7.668;2023-02-28T10:01:02;1.35;;;1.08;;
5730;SDS011;2890;51.950;7.668;2023-02-28T10:03:32;2.50;;;1.90;;
5730;SDS011;2890;51.950;7.668;2023-02-28T10:06:03;2.17;;;1.45;;
5730;SDS011;2890;51.950;7.668;2023-02-28T10:08:35;1.48;;;1.38;;
5730;SDS011;2890;51.950;7.668;2023-02-28T10:11:06;1.15;;;1.05;;
5730;SDS011;2890;51.950;7.668;2023-02-28T10:13:34;1.38;;;1.27;;
5730;SDS011;2890;51.950;7.668;2023-02-28T10:16:05;1.65;;;1.30;;
5730;SDS011;2890;51.950;7.668;2023-02-28T10:18:38;3.25;;;1.50;;
5730;SDS011;2890;51.950;7.668;2023-02-28T10:21:09;2.03;;;1.55;;
5730;SDS011;2890;51.950;7.668;2023-02-28T10:23:41;1.95;;;1.67;;
5730;SDS011;2890;51.950;7.668;2023-02-28T10:26:11;3.78;;;1.58;;
5730;SDS011;2890;51.950;7.668;2023-02-28T10:28:42;2.13;;;1.60;;
5730;SDS011;2890;51.950;7.668;2023-02-28T10:31:10;2.00;;;1.40;;
5730;SDS011;2890;51.950;7.668;2023-02-28T10:33:38;1.60;;;1.50;;
5730;SDS011;2890;51.950;7.668;2023-02-28T10:36:04;1.90;;;1.45;;
5730;SDS011;2890;51.950;7.668;2023-02-28T10:38:33;2.15;;;1.50;;
5730;SDS011;2890;51.950;7.668;2023-02-28T10:41:03;3.00;;;1.75;;
5730;SDS011;2890;51.950;7.668;2023-02-28T10:43:31;2.92;;;1.80;;
5730;SDS011;2890;51.950;7.668;2023-02-28T10:45:58;2.22;;;1.70;;
5730;SDS011;2890;51.950;7.668;2023-02-28T10:48:36;2.38;;;1.50;;
5730;SDS011;2890;51.950;7.668;2023-02-28T10:51:04;2.80;;;1.70;;
5730;SDS011;2890;51.950;7.668;2023-02-28T10:53:39;1.73;;;1.40;;
5730;SDS011;2890;51.950;7.668;2023-02-28T10:56:16;3.00;;;1.98;;
5730;SDS011;2890;51.950;7.668;2023-02-28T10:58:54;1.95;;;1.60;;
5730;SDS011;2890;51.950;7.668;2023-02-28T11:01:22;1.73;;;1.63;;
5730;SDS011;2890;51.950;7.668;2023-02-28T11:03:52;6.80;;;1.63;;
5730;SDS011;2890;51.950;7.668;2023-02-28T11:06:19;1.75;;;1.60;;
5730;SDS011;2890;51.950;7.668;2023-02-28T11:08:48;1.83;;;1.70;;
5730;SDS011;2890;51.950;7.668;2023-02-28T11:11:16;1.80;;;1.50;;
5730;SDS011;2890;51.950;7.668;2023-02-28T11:13:46;1.80;;;1.70;;
5730;SDS011;2890;51.950;7.668;2023-02-28T11:16:15;1.73;;;1.63;;
5730;SDS011;2890;51.950;7.668;2023-02-28T11:18:42;3.45;;;1.98;;
5730;SDS011;2890;51.950;7.668;2023-02-28T11:21:18;2.92;;;1.88;;
5730;SDS011;2890;51.950;7.668;2023-02-28T11:23:49;2.15;;;1.70;;
5730;SDS011;2890;51.950;7.668;2023-02-28T11:29:08;1.90;;;1.50;;
5730;SDS011;2890;51.950;7.668;2023-02-28T11:31:37;2.47;;;1.88;;
5730;SDS011;2890;51.950;7.668;2023-02-28T11:34:10;2.25;;;1.63;;
5730;SDS011;2890;51.950;7.668;2023-02-28T11:36:50;1.55;;;1.45;;
5730;SDS011;2890;51.950;7.668;2023-02-28T11:39:17;1.90;;;1.67;;
5730;SDS011;2890;51.950;7.668;2023-02-28T11:44:36;1.65;;;1.15;;
5730;SDS011;2890;51.950;7.668;2023-02-28T11:47:10;1.63;;;1.53;;
5730;SDS011;2890;51.950;7.668;2023-02-28T11:49:44;1.40;;;1.30;;
5730;SDS011;2890;51.950;7.668;2023-02-28T11:52:17;1.73;;;1.27;;
5730;SDS011;2890;51.950;7.668;2023-02-28T11:54:59;3.67;;;1.60;;
5730;SDS011;2890;51.950;7.668;2023-02-28T11:57:33;1.97;;;1.70;;
5730;SDS011;2890;51.950;7.668;2023-02-28T12:00:07;1.93;;;1.73;;
5730;SDS011;2890;51.950;7.668;2023-02-28T12:02:42;3.08;;;1.80;;
5730;SDS011;2890;51.950;7.668;2023-02-28T12:05:21;2.60;;;1.70;;
5730;SDS011;2890;51.950;7.668;2023-02-28T12:07:55;2.20;;;1.90;;
5730;SDS011;2890;51.950;7.668;2023-02-28T12:10:28;2.10;;;1.87;;
5730;SDS011;2890;51.950;7.668;2023-02-28T12:13:05;3.23;;;1.80;;
5730;SDS011;2890;51.950;7.668;2023-02-28T12:15:42;3.23;;;1.80;;
5730;SDS011;2890;51.950;7.668;2023-02-28T12:18:18;3.00;;;2.07;;
5730;SDS011;2890;51.950;7.668;2023-02-28T12:20:53;2.00;;;1.80;;
5730;SDS011;2890;51.950;7.668;2023-02-28T12:23:45;2.00;;;1.80;;
5730;SDS011;2890;51.950;7.668;2023-02-28T12:26:19;3.03;;;1.80;;
5730;SDS011;2890;51.950;7.668;2023-02-28T12:28:50;4.53;;;2.20;;
5730;SDS011;2890;51.950;7.668;2023-02-28T12:31:18;2.70;;;2.05;;
5730;SDS011;2890;51.950;7.668;2023-02-28T12:33:50;3.27;;;2.53;;
5730;SDS011;2890;51.950;7.668;2023-02-28T12:36:18;2.13;;;1.97;;
5730;SDS011;2890;51.950;7.668;2023-02-28T12:38:48;2.57;;;2.00;;
5730;SDS011;2890;51.950;7.668;2023-02-28T12:41:20;2.47;;;2.10;;
5730;SDS011;2890;51.950;7.668;2023-02-28T12:43:51;2.10;;;1.80;;
5730;SDS011;2890;51.950;7.668;2023-02-28T12:46:22;2.33;;;1.90;;
5730;SDS011;2890;51.950;7.668;2023-02-28T12:48:50;3.47;;;2.40;;
5730;SDS011;2890;51.950;7.668;2023-02-28T12:51:20;3.53;;;2.87;;
5730;SDS011;2890;51.950;7.668;2023-02-28T12:53:52;3.30;;;1.93;;
5730;SDS011;2890;51.950;7.668;2023-02-28T12:56:27;2.20;;;1.90;;
5730;SDS011;2890;51.950;7.668;2023-02-28T12:59:00;2.40;;;2.13;;
5730;SDS011;2890;51.950;7.668;2023-02-28T13:01:40;2.87;;;1.90;;
5730;SDS011;2890;51.950;7.668;2023-02-28T13:04:25;2.50;;;2.03;;
5730;SDS011;2890;51.950;7.668;2023-02-28T13:07:00;2.70;;;2.00;;
5730;SDS011;2890;51.950;7.668;2023-02-28T13:09:51;4.20;;;2.63;;
5730;SDS011;2890;51.950;7.668;2023-02-28T13:12:18;3.07;;;2.40;;
5730;SDS011;2890;51.950;7.668;2023-02-28T13:14:47;3.22;;;1.80;;
5730;SDS011;2890;51.950;7.668;2023-02-28T13:17:17;2.57;;;1.80;;
5730;SDS011;2890;51.950;7.668;2023-02-28T13:19:45;2.37;;;2.00;;
5730;SDS011;2890;51.950;7.668;2023-02-28T13:22:17;2.27;;;2.00;;
5730;SDS011;2890;51.950;7.668;2023-02-28T13:24:46;2.13;;;1.67;;
5730;SDS011;2890;51.950;7.668;2023-02-28T13:30:00;2.83;;;1.80;;
5730;SDS011;2890;51.950;7.668;2023-02-28T13:32:32;3.50;;;1.50;;
5730;SDS011;2890;51.950;7.668;2023-02-28T13:35:14;2.67;;;1.63;;
5730;SDS011;2890;51.950;7.668;2023-02-28T13:37:44;3.43;;;2.40;;
5730;SDS011;2890;51.950;7.668;2023-02-28T13:40:27;4.90;;;2.37;;
5730;SDS011;2890;51.950;7.668;2023-02-28T13:43:03;2.57;;;1.97;;
5730;SDS011;2890;51.950;7.668;2023-02-28T13:45:33;3.53;;;1.90;;
5730;SDS011;2890;51.950;7.668;2023-02-28T13:48:03;3.20;;;1.83;;
5730;SDS011;2890;51.950;7.668;2023-02-28T13:50:31;4.00;;;2.00;;
5730;SDS011;2890;51.950;7.668;2023-02-28T13:55:58;3.43;;;2.07;;
5730;SDS011;2890;51.950;7.668;2023-02-28T13:58:39;2.10;;;1.80;;
5730;SDS011;2890;51.950;7.668;2023-02-28T14:01:20;2.83;;;1.80;;
5730;SDS011;2890;51.950;7.668;2023-02-28T14:03:58;2.27;;;1.60;;
5730;SDS011;2890;51.950;7.668;2023-02-28T14:06:35;2.57;;;2.00;;
5730;SDS011;2890;51.950;7.668;2023-02-28T14:09:05;2.77;;;1.70;;
5730;SDS011;2890;51.950;7.668;2023-02-28T14:11:38;2.47;;;1.80;;
5730;SDS011;2890;51.950;7.668;2023-02-28T14:14:07;3.30;;;2.50;;
5730;SDS011;2890;51.950;7.668;2023-02-28T14:16:36;2.53;;;1.80;;
5730;SDS011;2890;51.950;7.668;2023-02-28T14:19:09;2.53;;;2.13;;
5730;SDS011;2890;51.950;7.668;2023-02-28T14:21:38;3.30;;;2.00;;
5730;SDS011;2890;51.950;7.668;2023-02-28T14:24:16;5.00;;;2.10;;
5730;SDS011;2890;51.950;7.668;2023-02-28T14:26:55;4.43;;;1.90;;
5730;SDS011;2890;51.950;7.668;2023-02-28T14:29:45;4.87;;;2.37;;
5730;SDS011;2890;51.950;7.668;2023-02-28T14:32:40;6.13;;;3.07;;
5730;SDS011;2890;51.950;7.668;2023-02-28T14:35:13;4.00;;;2.30;;
5730;SDS011;2890;51.950;7.668;2023-02-28T14:37:46;4.20;;;2.67;;
5730;SDS011;2890;51.950;7.668;2023-02-28T14:40:14;2.73;;;2.30;;
5730;SDS011;2890;51.950;7.668;2023-02-28T14:42:45;4.20;;;3.00;;
5730;SDS011;2890;51.950;7.668;2023-02-28T14:45:19;2.50;;;2.30;;
5730;SDS011;2890;51.950;7.668;2023-02-28T14:47:46;3.03;;;2.50;;
5730;SDS011;2890;51.950;7.668;2023-02-28T14:50:17;3.33;;;2.77;;
5730;SDS011;2890;51.950;7.668;2023-02-28T14:52:45;3.70;;;2.47;;
5730;SDS011;2890;51.950;7.668;2023-02-28T14:55:12;3.87;;;2.27;;
5730;SDS011;2890;51.950;7.668;2023-02-28T14:57:41;3.83;;;2.80;;
5730;SDS011;2890;51.950;7.668;2023-02-28T15:00:11;5.00;;;2.67;;
5730;SDS011;2890;51.950;7.668;2023-02-28T15:02:42;3.97;;;2.30;;
5730;SDS011;2890;51.950;7.668;2023-02-28T15:05:23;3.87;;;2.50;;
5730;SDS011;2890;51.950;7.668;2023-02-28T15:08:09;4.70;;;2.40;;
5730;SDS011;2890;51.950;7.668;2023-02-28T15:10:38;3.23;;;2.40;;
5730;SDS011;2890;51.950;7.668;2023-02-28T15:13:05;4.40;;;2.37;;
5730;SDS011;2890;51.950;7.668;2023-02-28T15:15:38;3.07;;;2.30;;
5730;SDS011;2890;51.950;7.668;2023-02-28T15:18:10;3.57;;;2.90;;
5730;SDS011;2890;51.950;7.668;2023-02-28T15:20:43;4.10;;;2.07;;
5730;SDS011;2890;51.950;7.668;2023-02-28T15:23:10;3.30;;;2.40;;
5730;SDS011;2890;51.950;7.668;2023-02-28T15:25:37;2.67;;;2.00;;
5730;SDS011;2890;51.950;7.668;2023-02-28T15:28:04;2.57;;;2.30;;
5730;SDS011;2890;51.950;7.668;2023-02-28T15:30:30;4.33;;;2.10;;
5730;SDS011;2890;51.950;7.668;2023-02-28T15:33:05;3.00;;;2.37;;
5730;SDS011;2890;51.950;7.668;2023-02-28T15:35:43;2.77;;;2.20;;
5730;SDS011;2890;51.950;7.668;2023-02-28T15:38:13;7.13;;;2.47;;
5730;SDS011;2890;51.950;7.668;2023-02-28T15:40:43;3.17;;;2.80;;
5730;SDS011;2890;51.950;7.668;2023-02-28T15:43:18;3.33;;;2.30;;
5730;SDS011;2890;51.950;7.668;2023-02-28T15:45:50;3.60;;;2.57;;